Time;durP1;ratioP1;P1;durP2;ratioP2;P2;SDS_P1;SDS_P2;PMS_P1;PMS_P2;Temp;Humidity;BMP_temperature;BMP_pressure;BME280_temperature;BME280_humidity;BME280_pressure;Samples;Min_cycle;Max_cycle;Signal;HPM_P1;HPM_P2
2022/09/06 00:01:07;;;;;;;17.40;12.88;;;;;;;;;;5010688;28;20064;-83
2022/09/06 00:03:33;;;;;;;16.85;13.73;;;;;;;;;;5028326;28;20101;-84
2022/09/06 00:06:04;;;;;;;16.13;13.05;;;;;;;;;;5028487;28;20087;-78
2022/09/06 00:08:30;;;;;;;16.17;13.10;;;;;;;;;;5027832;28;20046;-84
2022/09/06 00:10:57;;;;;;;16.17;12.90;;;;;;;;;;5029628;28;20128;-83
2022/09/06 00:13:26;;;;;;;17.13;13.20;;;;;;;;;;5029126;28;20265;-83
2022/09/06 00:15:53;;;;;;;16.98;12.90;;;;;;;;;;5029642;28;20061;-83
2022/09/06 00:18:19;;;;;;;14.38;11.95;;;;;;;;;;5029311;28;20076;-83
2022/09/06 00:20:46;;;;;;;16.23;12.75;;;;;;;;;;5011899;28;20058;-85
2022/09/06 00:23:12;;;;;;;18.60;12.68;;;;;;;;;;5034683;28;20068;-83
2022/09/06 00:25:40;;;;;;;16.38;12.68;;;;;;;;;;5032858;28;20589;-82
2022/09/06 00:28:06;;;;;;;16.33;12.32;;;;;;;;;;5028972;28;20161;-81
2022/09/06 00:30:33;;;;;;;15.05;12.48;;;;;;;;;;5028479;28;20053;-84
2022/09/06 00:32:59;;;;;;;16.17;12.98;;;;;;;;;;5027891;28;20030;-82
2022/09/06 00:35:26;;;;;;;18.35;13.23;;;;;;;;;;5028267;28;20053;-82
2022/09/06 00:37:59;;;;;;;14.23;12.32;;;;;;;;;;5028668;28;20064;-84
2022/09/06 00:40:28;;;;;;;16.73;12.88;;;;;;;;;;5027345;28;20077;-85
2022/09/06 00:42:55;;;;;;;18.60;12.43;;;;;;;;;;5021004;28;20069;-81
2022/09/06 00:45:22;;;;;;;16.40;12.77;;;;;;;;;;5011198;28;20052;-81
2022/09/06 00:47:49;;;;;;;13.25;11.82;;;;;;;;;;5029951;28;20062;-83
2022/09/06 00:50:17;;;;;;;15.48;12.23;;;;;;;;;;5027738;28;20045;-83
2022/09/06 00:52:44;;;;;;;16.33;12.38;;;;;;;;;;5029247;28;20050;-83
2022/09/06 00:55:11;;;;;;;14.07;12.55;;;;;;;;;;5008199;28;20046;-82
2022/09/06 00:57:37;;;;;;;17.20;13.13;;;;;;;;;;5024427;28;20093;-79
2022/09/06 01:00:05;;;;;;;17.98;13.18;;;;;;;;;;5025760;28;20058;-85
2022/09/06 01:02:32;;;;;;;16.98;13.10;;;;;;;;;;5027477;28;20073;-82
2022/09/06 01:04:58;;;;;;;16.40;13.15;;;;;;;;;;5023603;28;20060;-85
2022/09/06 01:07:43;;;;;;;19.35;13.13;;;;;;;;;;5026681;28;20048;-85
2022/09/06 01:10:22;;;;;;;18.60;12.38;;;;;;;;;;5025420;28;20133;-82
2022/09/06 01:12:54;;;;;;;14.38;12.45;;;;;;;;;;5001480;28;20141;-79
2022/09/06 01:15:27;;;;;;;15.75;12.35;;;;;;;;;;5016336;28;20050;-82
2022/09/06 01:17:53;;;;;;;13.45;12.05;;;;;;;;;;4996206;28;20052;-80
2022/09/06 01:20:31;;;;;;;17.10;12.15;;;;;;;;;;5015994;28;20062;-81
2022/09/06 01:23:09;;;;;;;19.88;13.50;;;;;;;;;;5020262;28;20085;-84
2022/09/06 01:25:55;;;;;;;15.00;12.70;;;;;;;;;;5028982;28;20061;-84
2022/09/06 01:28:31;;;;;;;19.45;12.55;;;;;;;;;;5012061;28;20057;-84
2022/09/06 01:31:16;;;;;;;14.68;12.07;;;;;;;;;;5029659;28;20104;-84
2022/09/06 01:34:01;;;;;;;15.02;12.13;;;;;;;;;;5029035;28;20050;-82
2022/09/06 01:36:30;;;;;;;17.20;13.55;;;;;;;;;;5029121;28;20046;-82
2022/09/06 01:38:56;;;;;;;18.98;13.30;;;;;;;;;;5028649;28;20057;-83
2022/09/06 01:41:23;;;;;;;14.85;13.10;;;;;;;;;;5029044;28;20062;-83
2022/09/06 01:43:50;;;;;;;17.63;13.70;;;;;;;;;;5030133;28;20073;-84
2022/09/06 01:46:23;;;;;;;21.38;14.57;;;;;;;;;;5030183;28;20065;-83
2022/09/06 01:49:01;;;;;;;19.60;14.45;;;;;;;;;;5028606;28;20088;-82
2022/09/06 01:51:38;;;;;;;17.38;14.55;;;;;;;;;;5029722;28;20061;-83
2022/09/06 01:54:16;;;;;;;20.15;14.90;;;;;;;;;;5028417;28;20042;-82
2022/09/06 01:56:42;;;;;;;;;;;;;;;;;;5028668;28;20081;-82
2022/09/06 01:59:08;;;;;;;;;;;;;;;;;;5028147;28;19921;-84
2022/09/06 02:01:42;;;;;;;19.83;14.25;;;;;;;;;;5029391;28;19948;-83
2022/09/06 02:04:09;;;;;;;18.13;14.70;;;;;;;;;;5031465;28;20054;-81
2022/09/06 02:06:44;;;;;;;16.95;14.80;;;;;;;;;;5032967;28;20168;-83
2022/09/06 02:09:15;;;;;;;18.70;15.75;;;;;;;;;;5032491;28;20088;-81
2022/09/06 02:11:44;;;;;;;20.67;14.68;;;;;;;;;;5035700;28;20060;-84
2022/09/06 02:14:14;;;;;;;18.50;15.27;;;;;;;;;;5036749;28;20095;-80
2022/09/06 02:16:42;;;;;;;20.42;14.95;;;;;;;;;;5032644;28;20059;-82
2022/09/06 02:19:15;;;;;;;18.80;15.30;;;;;;;;;;5032034;28;20114;-84
2022/09/06 02:21:44;;;;;;;20.48;15.00;;;;;;;;;;5032266;28;20065;-82
2022/09/06 02:24:15;;;;;;;21.42;14.63;;;;;;;;;;5013122;28;20049;-83
2022/09/06 02:26:42;;;;;;;19.65;14.75;;;;;;;;;;5030847;28;20054;-83
2022/09/06 02:29:09;;;;;;;19.45;15.70;;;;;;;;;;5033912;28;20030;-84
2022/09/06 02:31:49;;;;;;;20.90;14.88;;;;;;;;;;5036916;28;20053;-83
2022/09/06 02:34:17;;;;;;;19.58;15.52;;;;;;;;;;5029903;28;20050;-82
2022/09/06 02:36:43;;;;;;;19.92;16.10;;;;;;;;;;5030805;28;20049;-81
2022/09/06 02:39:10;;;;;;;17.35;14.23;;;;;;;;;;5027231;28;20526;-82
2022/09/06 02:41:38;;;;;;;20.73;16.52;;;;;;;;;;5028024;28;20046;-81
2022/09/06 02:44:05;;;;;;;18.10;14.77;;;;;;;;;;5028163;28;20069;-82
2022/09/06 02:46:31;;;;;;;21.25;15.35;;;;;;;;;;5027342;28;20045;-83
2022/09/06 02:48:58;;;;;;;20.00;15.45;;;;;;;;;;5026547;28;20041;-84
2022/09/06 02:51:25;;;;;;;19.90;15.45;;;;;;;;;;5028333;28;20106;-82
2022/09/06 02:53:51;;;;;;;18.90;15.15;;;;;;;;;;5027630;28;20069;-83
2022/09/06 02:56:17;;;;;;;19.58;15.55;;;;;;;;;;5027813;28;20169;-84
2022/09/06 02:58:44;;;;;;;18.40;14.07;;;;;;;;;;5027074;28;20057;-80
2022/09/06 03:01:11;;;;;;;17.15;14.07;;;;;;;;;;5027761;28;20745;-81
2022/09/06 03:03:37;;;;;;;18.35;14.63;;;;;;;;;;5026550;28;20049;-81
2022/09/06 03:06:04;;;;;;;19.92;14.18;;;;;;;;;;5026665;28;20101;-82
2022/09/06 03:08:32;;;;;;;15.75;13.73;;;;;;;;;;5009722;28;20459;-84
2022/09/06 03:11:02;;;;;;;17.88;14.45;;;;;;;;;;5026908;28;20081;-83
2022/09/06 03:13:28;;;;;;;20.92;15.35;;;;;;;;;;5027839;28;20046;-83
2022/09/06 03:15:56;;;;;;;17.92;14.13;;;;;;;;;;5027896;28;20046;-81
2022/09/06 03:18:23;;;;;;;21.45;14.18;;;;;;;;;;5010692;28;20045;-82
2022/09/06 03:20:50;;;;;;;17.40;13.40;;;;;;;;;;5010626;28;20065;-80
2022/09/06 03:23:17;;;;;;;14.88;12.70;;;;;;;;;;5028563;28;20080;-80
2022/09/06 03:25:43;;;;;;;17.88;13.55;;;;;;;;;;5026174;28;20081;-79
2022/09/06 03:28:10;;;;;;;18.73;13.75;;;;;;;;;;5023645;28;20128;-79
2022/09/06 03:30:36;;;;;;;16.65;12.80;;;;;;;;;;5005077;28;20057;-78
2022/09/06 03:33:03;;;;;;;15.00;12.90;;;;;;;;;;5024316;28;20444;-79
2022/09/06 03:35:32;;;;;;;16.67;12.43;;;;;;;;;;5025026;28;20057;-78
2022/09/06 03:37:58;;;;;;;16.70;12.77;;;;;;;;;;5025346;28;20188;-82
2022/09/06 03:40:25;;;;;;;17.17;13.93;;;;;;;;;;5022967;28;20119;-79
2022/09/06 03:42:51;;;;;;;17.20;13.85;;;;;;;;;;5021061;28;20088;-80
2022/09/06 03:45:18;;;;;;;16.50;14.15;;;;;;;;;;5022124;28;20506;-79
2022/09/06 03:47:44;;;;;;;15.20;13.02;;;;;;;;;;5001962;28;20110;-79
2022/09/06 03:50:11;;;;;;;17.63;14.38;;;;;;;;;;5026498;28;20058;-83
2022/09/06 03:52:37;;;;;;;20.00;14.05;;;;;;;;;;5033696;28;20054;-83
2022/09/06 03:55:04;;;;;;;20.92;13.90;;;;;;;;;;5032374;28;20033;-82
2022/09/06 03:57:30;;;;;;;19.20;14.32;;;;;;;;;;5031821;28;20053;-82
2022/09/06 03:59:57;;;;;;;17.98;14.50;;;;;;;;;;5011292;28;20052;-82
2022/09/06 04:02:23;;;;;;;19.40;14.40;;;;;;;;;;5026920;28;20052;-82
2022/09/06 04:04:54;;;;;;;25.20;16.00;;;;;;;;;;5025863;28;20045;-82
2022/09/06 04:07:21;;;;;;;23.05;15.90;;;;;;;;;;5024933;28;20053;-80
2022/09/06 04:09:48;;;;;;;17.75;14.30;;;;;;;;;;5023325;28;20142;-84
2022/09/06 04:12:14;;;;;;;18.23;13.82;;;;;;;;;;5008429;28;20556;-84
2022/09/06 04:14:40;;;;;;;16.90;13.25;;;;;;;;;;5025540;28;20041;-83
2022/09/06 04:17:07;;;;;;;17.73;13.95;;;;;;;;;;5026163;28;20502;-83
2022/09/06 04:19:33;;;;;;;19.75;14.35;;;;;;;;;;5025937;28;20034;-82
2022/09/06 04:21:59;;;;;;;17.77;13.93;;;;;;;;;;5026272;28;20137;-82
2022/09/06 04:24:26;;;;;;;19.55;15.45;;;;;;;;;;5025022;28;20050;-83
2022/09/06 04:26:52;;;;;;;21.23;15.68;;;;;;;;;;5024426;28;20058;-83
2022/09/06 04:29:18;;;;;;;23.20;15.07;;;;;;;;;;5022606;28;20054;-80
2022/09/06 04:31:45;;;;;;;22.02;14.57;;;;;;;;;;5020374;28;20046;-78
2022/09/06 04:34:11;;;;;;;17.95;14.98;;;;;;;;;;5016465;28;20421;-79
2022/09/06 04:36:38;;;;;;;18.90;14.63;;;;;;;;;;4999508;28;20076;-79
2022/09/06 04:39:05;;;;;;;17.98;13.95;;;;;;;;;;5028284;28;20054;-79
2022/09/06 04:41:32;;;;;;;19.48;14.02;;;;;;;;;;5022490;28;20056;-79
2022/09/06 04:43:58;;;;;;;16.33;13.43;;;;;;;;;;5020263;28;20657;-78
2022/09/06 04:46:28;;;;;;;18.90;13.52;;;;;;;;;;5022362;28;20113;-79
2022/09/06 04:48:55;;;;;;;19.08;14.98;;;;;;;;;;5020572;28;20053;-79
2022/09/06 04:51:22;;;;;;;21.33;13.30;;;;;;;;;;5021697;28;20089;-79
2022/09/06 04:53:49;;;;;;;21.25;14.20;;;;;;;;;;5021660;28;20518;-80
2022/09/06 04:56:17;;;;;;;15.98;13.32;;;;;;;;;;5018323;28;20069;-79
2022/09/06 04:58:44;;;;;;;17.40;13.77;;;;;;;;;;5019082;28;20257;-79
2022/09/06 05:01:11;;;;;;;15.80;13.55;;;;;;;;;;5020447;28;20548;-79
2022/09/06 05:03:37;;;;;;;20.75;13.45;;;;;;;;;;5019671;28;20133;-79
2022/09/06 05:06:22;;;;;;;20.45;14.80;;;;;;;;;;5020116;28;20113;-83
2022/09/06 05:08:49;;;;;;;22.50;14.32;;;;;;;;;;5024499;28;20053;-82
2022/09/06 05:11:15;;;;;;;19.17;14.48;;;;;;;;;;5004563;28;20084;-83
2022/09/06 05:13:42;;;;;;;20.58;13.43;;;;;;;;;;5024700;28;20105;-83
2022/09/06 05:16:08;;;;;;;19.77;12.75;;;;;;;;;;5025713;28;20050;-84
2022/09/06 05:18:35;;;;;;;20.42;13.68;;;;;;;;;;5008845;28;20053;-83
2022/09/06 05:21:01;;;;;;;19.83;14.52;;;;;;;;;;5025083;28;20054;-82
2022/09/06 05:23:30;;;;;;;17.20;13.15;;;;;;;;;;5025813;28;20080;-81
2022/09/06 05:25:57;;;;;;;19.17;12.70;;;;;;;;;;5007763;28;20073;-83
2022/09/06 05:28:23;;;;;;;18.38;12.55;;;;;;;;;;5025273;28;20061;-82
2022/09/06 05:30:50;;;;;;;18.65;13.02;;;;;;;;;;5025909;28;20045;-82
2022/09/06 05:33:20;;;;;;;20.30;13.10;;;;;;;;;;5026408;28;20069;-83
2022/09/06 05:35:47;;;;;;;17.50;12.95;;;;;;;;;;5031779;28;20050;-84
2022/09/06 05:38:13;;;;;;;18.05;13.02;;;;;;;;;;5018937;28;20073;-82
2022/09/06 05:40:40;;;;;;;16.15;12.38;;;;;;;;;;5032575;28;20065;-82
2022/09/06 05:43:06;;;;;;;19.25;12.30;;;;;;;;;;5027965;28;20081;-82
2022/09/06 05:45:33;;;;;;;18.45;12.13;;;;;;;;;;5028824;28;20045;-82
2022/09/06 05:47:59;;;;;;;15.45;12.73;;;;;;;;;;5010537;28;20053;-82
2022/09/06 05:50:26;;;;;;;16.00;12.68;;;;;;;;;;5028189;28;20045;-80
2022/09/06 05:52:52;;;;;;;16.00;12.30;;;;;;;;;;5028761;28;20140;-80
2022/09/06 05:55:19;;;;;;;20.88;12.02;;;;;;;;;;5026544;28;20046;-81
2022/09/06 05:57:45;;;;;;;16.55;11.32;;;;;;;;;;5027987;28;20046;-81
2022/09/06 06:00:23;;;;;;;17.50;11.50;;;;;;;;;;5027656;28;20112;-82
2022/09/06 06:02:49;;;;;;;14.50;11.57;;;;;;;;;;5026169;28;20419;-83
2022/09/06 06:05:16;;;;;;;16.45;11.90;;;;;;;;;;5026893;28;20120;-82
2022/09/06 06:07:42;;;;;;;17.20;11.80;;;;;;;;;;5027656;28;20053;-82
2022/09/06 06:10:08;;;;;;;18.67;11.98;;;;;;;;;;5027448;28;20081;-82
2022/09/06 06:12:35;;;;;;;15.52;11.68;;;;;;;;;;5027211;28;20053;-82
2022/09/06 06:15:04;;;;;;;15.13;11.38;;;;;;;;;;5029027;28;20192;-83
2022/09/06 06:17:30;;;;;;;16.35;11.93;;;;;;;;;;5029349;28;20042;-82
2022/09/06 06:19:57;;;;;;;16.20;11.23;;;;;;;;;;5025048;28;20070;-82
2022/09/06 06:22:23;;;;;;;18.10;11.65;;;;;;;;;;5009251;28;20073;-82
2022/09/06 06:24:50;;;;;;;14.63;10.45;;;;;;;;;;5024098;28;20049;-81
2022/09/06 06:27:16;;;;;;;14.45;10.70;;;;;;;;;;5000374;28;20502;-80
2022/09/06 06:29:42;;;;;;;16.20;11.07;;;;;;;;;;5019015;28;20141;-80
2022/09/06 06:32:09;;;;;;;15.80;10.40;;;;;;;;;;5024646;28;20041;-80
2022/09/06 06:34:35;;;;;;;19.08;11.00;;;;;;;;;;5027928;28;20105;-81
2022/09/06 06:37:02;;;;;;;15.27;10.65;;;;;;;;;;5028194;28;20049;-82
2022/09/06 06:39:28;;;;;;;13.65;9.95;;;;;;;;;;5028396;28;20065;-82
2022/09/06 06:41:55;;;;;;;17.73;10.02;;;;;;;;;;5028459;28;20050;-81
2022/09/06 06:44:21;;;;;;;14.52;10.02;;;;;;;;;;5008874;28;20069;-81
2022/09/06 06:46:47;;;;;;;11.68;8.95;;;;;;;;;;5034246;28;20042;-82
2022/09/06 06:49:16;;;;;;;17.98;10.77;;;;;;;;;;5030773;28;20092;-80
2022/09/06 06:51:43;;;;;;;14.98;10.43;;;;;;;;;;5027300;28;20053;-82
2022/09/06 06:54:09;;;;;;;16.83;9.13;;;;;;;;;;5028170;28;20049;-81
2022/09/06 06:56:37;;;;;;;12.23;8.55;;;;;;;;;;5028548;28;20049;-81
2022/09/06 06:59:07;;;;;;;14.48;8.40;;;;;;;;;;5029718;28;20426;-81
2022/09/06 07:01:34;;;;;;;16.33;9.30;;;;;;;;;;5029044;28;20104;-82
2022/09/06 07:04:01;;;;;;;18.08;9.13;;;;;;;;;;5027148;28;20524;-81
2022/09/06 07:06:28;;;;;;;10.07;8.18;;;;;;;;;;5027434;28;20123;-82
2022/09/06 07:09:16;;;;;;;17.23;8.73;;;;;;;;;;5023743;28;20056;-81
2022/09/06 07:11:45;;;;;;;13.60;9.35;;;;;;;;;;5022006;28;20395;-81
2022/09/06 07:14:11;;;;;;;14.98;8.35;;;;;;;;;;5015856;28;20521;-80
2022/09/06 07:16:38;;;;;;;12.07;8.48;;;;;;;;;;5020411;28;20100;-80
2022/09/06 07:19:04;;;;;;;13.43;8.27;;;;;;;;;;5013990;28;20456;-80
2022/09/06 07:21:31;;;;;;;11.45;8.23;;;;;;;;;;5021155;28;20049;-81
2022/09/06 07:24:01;;;;;;;15.88;7.57;;;;;;;;;;5001220;28;20073;-80
2022/09/06 07:26:31;;;;;;;11.55;7.82;;;;;;;;;;4997232;28;20226;-80
2022/09/06 07:28:59;;;;;;;15.02;8.20;;;;;;;;;;5026808;28;20054;-82
2022/09/06 07:31:26;;;;;;;12.10;8.40;;;;;;;;;;5019023;28;20156;-80
2022/09/06 07:34:13;;;;;;;13.52;8.60;;;;;;;;;;5019499;28;20046;-80
2022/09/06 07:36:43;;;;;;;9.88;7.60;;;;;;;;;;5020119;28;20045;-81
2022/09/06 07:39:09;;;;;;;10.25;7.50;;;;;;;;;;5018630;28;20077;-80
2022/09/06 07:41:35;;;;;;;12.52;7.72;;;;;;;;;;5004275;28;20049;-80
2022/09/06 07:44:02;;;;;;;12.25;7.30;;;;;;;;;;5021242;28;20556;-81
2022/09/06 07:46:28;;;;;;;14.50;8.27;;;;;;;;;;5022263;28;20074;-80
2022/09/06 07:48:55;;;;;;;12.27;7.70;;;;;;;;;;5020251;28;20133;-80
2022/09/06 07:51:22;;;;;;;13.15;7.60;;;;;;;;;;5022808;28;20085;-81
2022/09/06 07:53:52;;;;;;;13.25;6.80;;;;;;;;;;5028173;28;20053;-82
2022/09/06 07:56:39;;;;;;;13.20;6.97;;;;;;;;;;5025810;28;20050;-81
2022/09/06 07:59:05;;;;;;;10.07;6.70;;;;;;;;;;5026056;28;20049;-81
2022/09/06 08:01:33;;;;;;;13.60;6.43;;;;;;;;;;5008698;28;20069;-81
2022/09/06 08:04:00;;;;;;;12.43;6.07;;;;;;;;;;5024434;28;20096;-81
2022/09/06 08:06:28;;;;;;;10.20;6.15;;;;;;;;;;5024142;28;20054;-81
2022/09/06 08:08:54;;;;;;;9.57;5.93;;;;;;;;;;5024161;28;20384;-81
2022/09/06 08:11:23;;;;;;;12.40;6.57;;;;;;;;;;5025257;28;20058;-81
2022/09/06 08:13:50;;;;;;;10.15;6.28;;;;;;;;;;5024448;28;20068;-81
2022/09/06 08:16:17;;;;;;;8.80;5.97;;;;;;;;;;5024985;28;20042;-81
2022/09/06 08:18:43;;;;;;;14.25;6.22;;;;;;;;;;5008144;28;20049;-81
2022/09/06 08:21:10;;;;;;;13.32;6.60;;;;;;;;;;5024011;28;20049;-81
2022/09/06 08:23:41;;;;;;;11.27;5.80;;;;;;;;;;5020230;28;20050;-81
2022/09/06 08:26:08;;;;;;;10.90;6.40;;;;;;;;;;5018580;28;20462;-81
2022/09/06 08:28:34;;;;;;;10.07;5.80;;;;;;;;;;5020524;28;20070;-80
2022/09/06 08:31:08;;;;;;;10.43;6.30;;;;;;;;;;5022509;28;20106;-80
2022/09/06 08:33:34;;;;;;;9.68;6.10;;;;;;;;;;5022720;28;20074;-81
2022/09/06 08:36:01;;;;;;;9.27;5.57;;;;;;;;;;5022587;28;20410;-80
2022/09/06 08:38:27;;;;;;;8.15;5.75;;;;;;;;;;5022743;28;20088;-81
2022/09/06 08:41:03;;;;;;;9.95;5.20;;;;;;;;;;5022118;28;20264;-81
2022/09/06 08:43:30;;;;;;;9.43;5.70;;;;;;;;;;5021528;28;20057;-80
2022/09/06 08:45:57;;;;;;;7.88;5.65;;;;;;;;;;5021366;28;20060;-83
2022/09/06 08:48:26;;;;;;;10.20;5.88;;;;;;;;;;5018420;28;20121;-80
2022/09/06 08:51:00;;;;;;;11.15;5.35;;;;;;;;;;5024977;28;20061;-83
2022/09/06 08:53:27;;;;;;;9.17;4.70;;;;;;;;;;5029082;28;20046;-83
2022/09/06 08:55:57;;;;;;;9.02;4.85;;;;;;;;;;5016094;28;20046;-83
2022/09/06 08:58:23;;;;;;;8.98;4.90;;;;;;;;;;5016423;28;20129;-82
2022/09/06 09:00:57;;;;;;;7.75;4.78;;;;;;;;;;5033672;28;20053;-83
2022/09/06 09:03:35;;;;;;;9.23;4.90;;;;;;;;;;5017859;28;20150;-81
2022/09/06 09:06:04;;;;;;;10.27;4.75;;;;;;;;;;5029024;28;20585;-81
2022/09/06 09:08:30;;;;;;;7.82;4.78;;;;;;;;;;5024778;28;20046;-82
2022/09/06 09:10:59;;;;;;;10.60;4.78;;;;;;;;;;5024904;28;20046;-81
2022/09/06 09:13:26;;;;;;;10.02;4.68;;;;;;;;;;5029186;28;20096;-80
2022/09/06 09:15:52;;;;;;;10.77;4.45;;;;;;;;;;5030088;28;20050;-81
2022/09/06 09:18:21;;;;;;;11.35;4.68;;;;;;;;;;5029084;28;20080;-81
2022/09/06 09:20:48;;;;;;;8.55;4.47;;;;;;;;;;5030113;28;20073;-80
2022/09/06 09:23:17;;;;;;;6.47;4.05;;;;;;;;;;5029151;28;20050;-81
2022/09/06 09:25:48;;;;;;;12.57;4.68;;;;;;;;;;5012428;28;20097;-79
2022/09/06 09:28:22;;;;;;;7.32;4.65;;;;;;;;;;5029434;28;20081;-81
2022/09/06 09:30:53;;;;;;;10.50;4.78;;;;;;;;;;5029900;28;20362;-80
2022/09/06 09:33:20;;;;;;;9.00;4.85;;;;;;;;;;5029595;28;20050;-81
2022/09/06 09:35:47;;;;;;;8.00;5.10;;;;;;;;;;5029349;28;20049;-81
2022/09/06 09:38:22;;;;;;;8.18;4.82;;;;;;;;;;5030382;28;20141;-81
2022/09/06 09:40:49;;;;;;;;;;;;;;;;;;5028587;28;20050;-81
2022/09/06 09:43:18;;;;;;;12.30;4.30;;;;;;;;;;5028109;28;19925;-81
2022/09/06 09:45:45;;;;;;;5.20;4.20;;;;;;;;;;5011424;28;20049;-81
2022/09/06 09:48:17;;;;;;;10.82;3.92;;;;;;;;;;5028558;28;20112;-81
2022/09/06 09:50:44;;;;;;;8.52;4.22;;;;;;;;;;5026997;28;20088;-81
2022/09/06 09:53:14;;;;;;;8.70;4.18;;;;;;;;;;5027668;28;20046;-81
2022/09/06 09:55:41;;;;;;;7.10;4.45;;;;;;;;;;5027372;28;20069;-81
2022/09/06 09:58:17;;;;;;;8.20;4.05;;;;;;;;;;5027201;28;20373;-78
2022/09/06 10:00:43;;;;;;;13.73;4.60;;;;;;;;;;5027771;28;20046;-80
2022/09/06 10:03:24;;;;;;;6.25;4.63;;;;;;;;;;5026883;28;20050;-79
2022/09/06 10:05:56;;;;;;;9.48;4.63;;;;;;;;;;5028525;28;20046;-82
2022/09/06 10:08:29;;;;;;;6.72;4.13;;;;;;;;;;5009965;28;20069;-80
2022/09/06 10:10:56;;;;;;;8.48;3.85;;;;;;;;;;5010525;28;20046;-81
2022/09/06 10:13:29;;;;;;;5.85;3.65;;;;;;;;;;5027662;28;20533;-81
2022/09/06 10:15:57;;;;;;;6.32;4.00;;;;;;;;;;5029524;28;20061;-80
2022/09/06 10:18:40;;;;;;;5.30;3.58;;;;;;;;;;5027451;28;20079;-81
2022/09/06 10:21:09;;;;;;;5.72;4.00;;;;;;;;;;5028609;28;20084;-81
2022/09/06 10:23:54;;;;;;;6.05;4.00;;;;;;;;;;5021878;28;20104;-80
2022/09/06 10:26:51;;;;;;;8.18;3.70;;;;;;;;;;5028054;28;20115;-83
2022/09/06 10:29:24;;;;;;;4.32;3.55;;;;;;;;;;5008891;28;20046;-80
2022/09/06 10:31:57;;;;;;;5.22;3.13;;;;;;;;;;5028191;28;20050;-82
2022/09/06 10:34:42;;;;;;;4.63;3.15;;;;;;;;;;5026908;28;20041;-81
2022/09/06 10:37:27;;;;;;;7.10;3.55;;;;;;;;;;5027170;28;20085;-82
2022/09/06 10:39:56;;;;;;;11.15;3.72;;;;;;;;;;5027806;28;20046;-81
2022/09/06 10:42:42;;;;;;;6.47;3.70;;;;;;;;;;5023826;28;20119;-80
2022/09/06 10:45:21;;;;;;;6.43;3.40;;;;;;;;;;5023241;28;20144;-81
2022/09/06 10:47:54;;;;;;;7.30;3.95;;;;;;;;;;5028787;28;20057;-82
2022/09/06 10:50:43;;;;;;;5.40;3.20;;;;;;;;;;5010621;28;20554;-80
2022/09/06 10:53:12;;;;;;;5.47;3.05;;;;;;;;;;5026597;28;20116;-81
2022/09/06 10:55:39;;;;;;;4.90;2.92;;;;;;;;;;5028390;28;20112;-82
2022/09/06 10:58:09;;;;;;;5.22;2.50;;;;;;;;;;5027785;28;20034;-81
2022/09/06 11:00:46;;;;;;;5.18;2.90;;;;;;;;;;5032246;28;20056;-82
2022/09/06 11:03:18;;;;;;;3.50;2.90;;;;;;;;;;5015648;28;20060;-81
2022/09/06 11:06:09;;;;;;;3.78;2.92;;;;;;;;;;5028563;28;20046;-82
2022/09/06 11:08:38;;;;;;;5.68;3.25;;;;;;;;;;5027549;28;20126;-82
2022/09/06 11:11:39;;;;;;;4.10;2.75;;;;;;;;;;5027676;28;20510;-82
2022/09/06 11:14:09;;;;;;;8.35;3.00;;;;;;;;;;5024691;28;20053;-82
2022/09/06 11:16:40;;;;;;;4.45;2.92;;;;;;;;;;5028544;28;20077;-83
2022/09/06 11:19:16;;;;;;;3.88;2.85;;;;;;;;;;5027836;28;20478;-82
2022/09/06 11:21:43;;;;;;;4.68;3.05;;;;;;;;;;5028360;28;20073;-82
2022/09/06 11:24:13;;;;;;;6.10;2.80;;;;;;;;;;5024756;28;20046;-82
2022/09/06 11:26:58;;;;;;;4.45;2.97;;;;;;;;;;5023073;28;20046;-81
2022/09/06 11:29:25;;;;;;;2.90;2.60;;;;;;;;;;5005790;28;20538;-81
2022/09/06 11:31:56;;;;;;;4.28;2.90;;;;;;;;;;5022817;28;20080;-80
2022/09/06 11:34:50;;;;;;;3.92;3.13;;;;;;;;;;5010583;28;20056;-81
2022/09/06 11:37:29;;;;;;;3.78;2.83;;;;;;;;;;5026890;28;20065;-81
2022/09/06 11:40:05;;;;;;;24.80;3.72;;;;;;;;;;5024072;28;20042;-80
2022/09/06 11:42:51;;;;;;;7.28;3.45;;;;;;;;;;5024504;28;20046;-82
2022/09/06 11:45:22;;;;;;;5.45;3.28;;;;;;;;;;5027215;28;20145;-81
2022/09/06 11:47:52;;;;;;;10.45;3.60;;;;;;;;;;5028267;28;20054;-82
2022/09/06 11:50:18;;;;;;;7.82;3.83;;;;;;;;;;5026318;28;20060;-81
2022/09/06 11:52:54;;;;;;;6.85;4.07;;;;;;;;;;5007297;28;20380;-80
2022/09/06 11:55:23;;;;;;;18.13;4.28;;;;;;;;;;5010702;28;20132;-80
2022/09/06 11:57:55;;;;;;;13.38;5.50;;;;;;;;;;5023570;28;20057;-80
2022/09/06 12:00:23;;;;;;;13.32;5.90;;;;;;;;;;5024629;28;20053;-80
2022/09/06 12:02:50;;;;;;;13.80;6.78;;;;;;;;;;5024229;28;20055;-81
2022/09/06 12:05:24;;;;;;;9.15;6.18;;;;;;;;;;5025463;28;20060;-81
2022/09/06 12:08:09;;;;;;;15.18;6.95;;;;;;;;;;5025041;28;20058;-81
2022/09/06 12:10:38;;;;;;;11.02;8.10;;;;;;;;;;5023813;28;20053;-81
2022/09/06 12:13:37;;;;;;;14.30;7.78;;;;;;;;;;5023744;28;20069;-80
2022/09/06 12:16:06;;;;;;;9.60;7.85;;;;;;;;;;4992889;28;20414;-82
2022/09/06 12:18:42;;;;;;;11.52;7.78;;;;;;;;;;5028556;28;20045;-82
2022/09/06 12:21:09;;;;;;;10.48;7.55;;;;;;;;;;5035204;28;20041;-83
2022/09/06 12:23:41;;;;;;;10.18;7.90;;;;;;;;;;5033076;28;20115;-81
2022/09/06 12:26:11;;;;;;;13.30;8.13;;;;;;;;;;5027912;28;20077;-81
2022/09/06 12:28:48;;;;;;;10.20;8.02;;;;;;;;;;5024842;28;20045;-82
2022/09/06 12:31:26;;;;;;;7.90;5.03;;;;;;;;;;5026557;28;20060;-81
2022/09/06 12:33:53;;;;;;;4.45;3.30;;;;;;;;;;5010130;28;20072;-80
2022/09/06 12:36:22;;;;;;;6.30;3.83;;;;;;;;;;5027237;28;20049;-80
2022/09/06 12:38:59;;;;;;;4.55;3.25;;;;;;;;;;5025748;28;20081;-81
2022/09/06 12:41:27;;;;;;;7.38;3.47;;;;;;;;;;5024416;28;20050;-81
2022/09/06 12:43:55;;;;;;;6.47;3.40;;;;;;;;;;5026298;28;20425;-81
2022/09/06 12:46:23;;;;;;;6.05;3.60;;;;;;;;;;5025217;28;20108;-80
2022/09/06 12:49:09;;;;;;;6.47;3.92;;;;;;;;;;5024530;28;20073;-80
2022/09/06 12:51:37;;;;;;;6.30;3.33;;;;;;;;;;5010008;28;20057;-81
2022/09/06 12:54:05;;;;;;;4.93;3.03;;;;;;;;;;5009929;28;20109;-79
2022/09/06 12:56:33;;;;;;;5.47;2.80;;;;;;;;;;5025574;28;20054;-81
2022/09/06 12:59:19;;;;;;;6.28;2.40;;;;;;;;;;5025898;28;20045;-79
2022/09/06 13:01:49;;;;;;;4.82;2.53;;;;;;;;;;5026928;28;20046;-80
2022/09/06 13:04:39;;;;;;;5.22;2.50;;;;;;;;;;5008837;28;20506;-82
2022/09/06 13:07:08;;;;;;;5.85;2.47;;;;;;;;;;5026402;28;20057;-81
2022/09/06 13:09:37;;;;;;;6.40;3.03;;;;;;;;;;5026614;28;20081;-80
2022/09/06 13:12:06;;;;;;;6.15;2.70;;;;;;;;;;5026894;28;20077;-81
2022/09/06 13:14:33;;;;;;;5.32;3.13;;;;;;;;;;5025579;28;20062;-80
2022/09/06 13:17:00;;;;;;;5.43;3.20;;;;;;;;;;5025956;28;20046;-80
2022/09/06 13:19:28;;;;;;;5.75;2.88;;;;;;;;;;5024018;28;20080;-80
2022/09/06 13:21:56;;;;;;;4.30;2.45;;;;;;;;;;5015565;28;20454;-80
2022/09/06 13:24:36;;;;;;;5.60;2.55;;;;;;;;;;5018530;28;20105;-79
2022/09/06 13:27:21;;;;;;;5.45;2.65;;;;;;;;;;5014226;28;20050;-83
2022/09/06 13:29:55;;;;;;;6.40;2.97;;;;;;;;;;4993630;28;20061;-81
2022/09/06 13:32:22;;;;;;;5.47;2.50;;;;;;;;;;5017131;28;20149;-81
2022/09/06 13:34:51;;;;;;;4.70;3.15;;;;;;;;;;5017182;28;20077;-79
2022/09/06 13:37:19;;;;;;;4.63;2.55;;;;;;;;;;5019510;28;20107;-80
2022/09/06 13:39:45;;;;;;;4.28;2.53;;;;;;;;;;5014493;28;20076;-80
2022/09/06 13:42:24;;;;;;;4.93;2.40;;;;;;;;;;4998958;28;20050;-80
2022/09/06 13:44:50;;;;;;;6.32;3.10;;;;;;;;;;4999281;28;20553;-82
2022/09/06 13:47:17;;;;;;;4.57;2.50;;;;;;;;;;5022340;28;20045;-80
2022/09/06 13:49:43;;;;;;;7.40;2.47;;;;;;;;;;5019284;28;20077;-83
2022/09/06 13:52:10;;;;;;;5.95;2.90;;;;;;;;;;5020684;28;20045;-83
2022/09/06 13:54:36;;;;;;;3.83;2.35;;;;;;;;;;5018070;28;20085;-80
2022/09/06 13:57:03;;;;;;;4.13;2.42;;;;;;;;;;5019661;28;20053;-82
2022/09/06 13:59:30;;;;;;;5.35;2.10;;;;;;;;;;5025875;28;20101;-82
2022/09/06 14:02:01;;;;;;;3.58;2.33;;;;;;;;;;5023278;28;20045;-82
2022/09/06 14:04:28;;;;;;;4.50;2.30;;;;;;;;;;5004352;28;20080;-82
2022/09/06 14:06:54;;;;;;;3.20;2.10;;;;;;;;;;5024670;28;20092;-81
2022/09/06 14:09:21;;;;;;;2.78;1.83;;;;;;;;;;5001555;28;20050;-82
2022/09/06 14:11:47;;;;;;;4.55;1.63;;;;;;;;;;5019960;28;20050;-82
2022/09/06 14:14:14;;;;;;;2.78;1.80;;;;;;;;;;5023373;28;20084;-82
2022/09/06 14:16:40;;;;;;;2.50;1.88;;;;;;;;;;5023583;28;20077;-81
2022/09/06 14:19:07;;;;;;;1.90;1.60;;;;;;;;;;5016983;28;20141;-82
2022/09/06 14:21:33;;;;;;;5.82;1.70;;;;;;;;;;4998758;28;20077;-82
2022/09/06 14:24:00;;;;;;;2.13;1.40;;;;;;;;;;5018932;28;20132;-83
2022/09/06 14:26:29;;;;;;;2.90;1.70;;;;;;;;;;5023510;28;20069;-81
2022/09/06 14:28:56;;;;;;;5.30;1.60;;;;;;;;;;5016513;28;20053;-83
2022/09/06 14:31:24;;;;;;;3.13;1.67;;;;;;;;;;5016217;28;20069;-84
2022/09/06 14:33:55;;;;;;;6.95;1.45;;;;;;;;;;4999953;28;20851;-82
2022/09/06 14:36:25;;;;;;;3.85;1.52;;;;;;;;;;5020796;28;20379;-82
2022/09/06 14:38:52;;;;;;;4.70;1.88;;;;;;;;;;5021655;28;20088;-82
2022/09/06 14:41:18;;;;;;;2.22;1.50;;;;;;;;;;5023961;28;20073;-83
2022/09/06 14:43:49;;;;;;;2.95;1.60;;;;;;;;;;5002004;28;20597;-83